Terminal Aerodrome Forecast
Issued by NWS Sterling, VA

Current Version | Previous Version | Text Only | Print | Product List | Glossary Off
Versions: 1 2 3 4 5 6 7 8 9 10 11 12 13 14 15 16 17 18 19 20 21 22 23 24 25 26 27 28 29

029
FTUS41 KLWX 300010 AAA
TAFIAD
TAF AMD
KIAD 300010Z 3000/0106 22004KT 3SM BR OVC003
     FM300200 VRB03KT 1/2SM FG OVC003
     FM300900 16004KT 2SM -SHRA OVC003
     FM301300 15007KT P6SM -SHRA OVC003
     FM301500 18011KT P6SM -SHRA OVC008
     FM301800 19013G20KT 6SM -SHRA SCT008 OVC015
     FM302100 19011G20KT 6SM SHRA OVC020
     FM010000 21010KT 6SM -SHRA OVC030=

USA.gov is the U.S. government's official web portal to all federal, state and local government web resources and services.